createdAt,value
2017-06-10T00:00:37.110Z,83.00
2017-06-10T00:03:03.387Z,83.30
2017-06-10T00:05:29.646Z,83.30
2017-06-10T00:07:56.153Z,83.10
2017-06-10T00:10:22.421Z,83.20
2017-06-10T00:12:48.709Z,83.40
2017-06-10T00:15:14.995Z,83.10
2017-06-10T00:17:41.245Z,83.30
2017-06-10T00:20:07.578Z,84.10
2017-06-10T00:22:33.844Z,83.60
2017-06-10T00:25:00.120Z,83.70
2017-06-10T00:27:26.363Z,83.30
2017-06-10T00:29:52.662Z,83.60
2017-06-10T00:32:19.054Z,83.80
2017-06-10T00:34:45.664Z,83.90
2017-06-10T00:37:11.965Z,83.80
2017-06-10T00:39:38.200Z,84.10
2017-06-10T00:42:04.897Z,84.40
2017-06-10T00:44:31.156Z,83.90
2017-06-10T00:46:57.417Z,84.20
2017-06-10T00:49:23.696Z,84.20
2017-06-10T00:51:49.950Z,84.00
2017-06-10T00:54:16.229Z,84.40
2017-06-10T00:56:42.473Z,84.80
2017-06-10T00:59:08.756Z,84.30
2017-06-10T01:01:35.040Z,84.90
2017-06-10T01:04:01.293Z,83.70
2017-06-10T01:06:27.575Z,83.80
2017-06-10T01:08:54.352Z,84.30
2017-06-10T01:11:20.601Z,84.20
2017-06-10T01:13:46.850Z,84.30
2017-06-10T01:16:13.497Z,84.50
2017-06-10T01:18:39.747Z,84.40
2017-06-10T01:21:06.080Z,84.70
2017-06-10T01:23:32.720Z,84.90
2017-06-10T01:25:59.551Z,85.10
2017-06-10T01:28:26.188Z,84.70
2017-06-10T01:30:52.817Z,84.60
2017-06-10T01:33:19.131Z,84.60
2017-06-10T01:35:45.411Z,84.90
2017-06-10T01:38:11.691Z,84.70
2017-06-10T01:40:38.148Z,85.10
2017-06-10T01:43:04.808Z,84.20
2017-06-10T01:45:31.104Z,84.20
2017-06-10T01:47:57.377Z,84.50
2017-06-10T01:50:23.676Z,84.40
2017-06-10T01:52:50.361Z,84.30
2017-06-10T01:55:16.660Z,84.30
2017-06-10T01:57:42.917Z,83.40
2017-06-10T02:00:09.172Z,83.70
2017-06-10T02:02:35.437Z,83.90
2017-06-10T02:05:02.070Z,84.90
2017-06-10T02:07:28.994Z,85.10
2017-06-10T02:09:55.260Z,85.10
2017-06-10T02:12:21.508Z,84.80
2017-06-10T02:14:47.781Z,84.40
2017-06-10T02:17:14.026Z,84.00
2017-06-10T02:19:40.669Z,84.40
2017-06-10T02:22:07.313Z,84.70
2017-06-10T02:24:33.972Z,84.60
2017-06-10T02:27:00.369Z,84.70
2017-06-10T02:29:27.019Z,85.60
2017-06-10T02:31:53.654Z,85.50
2017-06-10T02:34:20.267Z,85.30
2017-06-10T02:36:46.537Z,85.30
2017-06-10T02:39:12.813Z,83.90
2017-06-10T02:41:39.468Z,82.80
2017-06-10T02:44:05.713Z,81.60
2017-06-10T02:46:31.949Z,80.80
2017-06-10T02:48:58.239Z,80.70
2017-06-10T02:51:24.480Z,80.70
2017-06-10T02:53:50.741Z,81.00
2017-06-10T02:56:16.989Z,80.80
2017-06-10T02:58:43.682Z,81.10
2017-06-10T03:01:09.951Z,81.20
2017-06-10T03:03:36.193Z,81.10
2017-06-10T03:06:02.470Z,80.80
2017-06-10T03:08:28.736Z,80.50
2017-06-10T03:10:55.021Z,81.00
2017-06-10T03:13:21.272Z,80.90
2017-06-10T03:15:47.544Z,80.80
2017-06-10T03:18:13.822Z,81.00
2017-06-10T03:20:40.477Z,81.50
2017-06-10T03:23:06.754Z,81.50
2017-06-10T03:25:33.118Z,82.00
2017-06-10T03:27:59.764Z,82.40
2017-06-10T03:30:26.033Z,82.40
2017-06-10T03:32:52.305Z,81.90
2017-06-10T03:35:19.393Z,81.30
2017-06-10T03:37:45.690Z,81.40
2017-06-10T03:40:12.336Z,82.00
2017-06-10T03:42:38.610Z,82.00
2017-06-10T03:45:04.870Z,82.80
2017-06-10T03:47:31.149Z,83.80
2017-06-10T03:49:57.421Z,85.10
2017-06-10T03:52:23.711Z,84.70
2017-06-10T03:54:49.989Z,84.70
2017-06-10T03:57:16.248Z,84.50
2017-06-10T03:59:42.524Z,84.30
2017-06-10T04:02:08.794Z,83.30
2017-06-10T04:04:35.223Z,82.80
2017-06-10T04:07:02.065Z,83.60
2017-06-10T04:09:28.699Z,83.80
2017-06-10T04:11:54.938Z,83.80
2017-06-10T04:14:21.562Z,84.20
2017-06-10T04:16:47.848Z,84.30
2017-06-10T04:19:14.094Z,84.00
2017-06-10T04:21:40.362Z,84.10
2017-06-10T04:24:06.612Z,84.40
2017-06-10T04:26:32.910Z,84.60
2017-06-10T04:28:59.165Z,84.60
2017-06-10T04:31:25.413Z,84.20
2017-06-10T04:33:51.677Z,83.30
2017-06-10T04:36:17.926Z,83.20
2017-06-10T04:38:44.199Z,83.00
2017-06-10T04:41:10.441Z,82.70
2017-06-10T04:43:36.733Z,81.90
2017-06-10T04:46:03.001Z,81.00
2017-06-10T04:48:29.238Z,81.20
2017-06-10T04:50:55.506Z,81.50
2017-06-10T04:53:21.748Z,81.20
2017-06-10T04:55:48.017Z,80.50
2017-06-10T04:58:14.261Z,79.90
2017-06-10T05:00:40.809Z,79.80
2017-06-10T05:03:07.046Z,80.10
2017-06-10T05:05:33.378Z,80.70
2017-06-10T05:07:59.676Z,80.40
2017-06-10T05:10:25.945Z,81.10
2017-06-10T05:12:52.576Z,81.60
2017-06-10T05:15:19.210Z,81.00
2017-06-10T05:17:45.646Z,81.00
2017-06-10T05:20:12.292Z,82.10
2017-06-10T05:22:38.534Z,82.20
2017-06-10T05:25:04.813Z,81.80
2017-06-10T05:27:31.063Z,80.90
2017-06-10T05:29:57.341Z,81.40
2017-06-10T05:32:23.647Z,82.20
2017-06-10T05:34:49.901Z,83.10
2017-06-10T05:37:16.183Z,82.80
2017-06-10T05:39:42.415Z,82.00
2017-06-10T05:42:08.892Z,82.30
2017-06-10T05:44:36.018Z,81.90
2017-06-10T05:47:02.269Z,81.70
2017-06-10T05:49:28.536Z,82.40
2017-06-10T05:51:54.785Z,83.00
2017-06-10T05:54:21.065Z,81.90
2017-06-10T05:56:47.333Z,82.30
2017-06-10T05:59:13.641Z,82.20
2017-06-10T06:01:39.899Z,82.20
2017-06-10T06:04:06.161Z,82.00
2017-06-10T06:06:32.428Z,81.10
2017-06-10T06:08:58.713Z,80.80
2017-06-10T06:11:24.995Z,79.80
2017-06-10T06:13:51.278Z,79.90
2017-06-10T06:16:17.783Z,78.90
2017-06-10T06:18:44.418Z,78.40
2017-06-10T06:21:11.050Z,78.30
2017-06-10T06:23:37.313Z,78.30
2017-06-10T06:26:03.715Z,78.20
2017-06-10T06:28:30.148Z,77.50
2017-06-10T06:30:57.212Z,77.70
2017-06-10T06:33:24.132Z,78.50
2017-06-10T06:35:50.380Z,78.50
2017-06-10T06:38:16.632Z,76.90
2017-06-10T06:40:42.912Z,76.70
2017-06-10T06:43:09.173Z,75.50
2017-06-10T06:45:35.588Z,75.80
2017-06-10T06:48:02.223Z,75.40
2017-06-10T06:50:28.880Z,75.30
2017-06-10T06:52:55.158Z,75.30
2017-06-10T06:55:21.415Z,76.00
2017-06-10T06:57:47.750Z,75.30
2017-06-10T07:00:14.393Z,76.00
2017-06-10T07:02:41.059Z,77.30
2017-06-10T07:05:07.308Z,77.30
2017-06-10T07:07:33.849Z,75.40
2017-06-10T07:10:00.143Z,74.70
2017-06-10T07:12:26.390Z,76.40
2017-06-10T07:14:52.696Z,73.80
2017-06-10T07:17:18.961Z,74.60
2017-06-10T07:19:45.713Z,74.80
2017-06-10T07:22:11.976Z,74.80
2017-06-10T07:24:38.273Z,72.20
2017-06-10T07:27:04.590Z,72.00
2017-06-10T07:29:30.850Z,73.80
2017-06-10T07:31:57.120Z,70.90
2017-06-10T07:34:23.394Z,69.20
2017-06-10T07:36:49.697Z,69.10
2017-06-10T07:39:15.944Z,70.50
2017-06-10T07:41:42.240Z,72.20
2017-06-10T07:44:08.508Z,71.60
2017-06-10T07:46:34.796Z,72.00
2017-06-10T07:49:01.069Z,69.80
2017-06-10T07:51:27.344Z,69.10
2017-06-10T07:53:53.616Z,68.40
2017-06-10T07:56:19.918Z,66.00
2017-06-10T07:58:46.185Z,65.20
2017-06-10T08:01:12.517Z,67.10
2017-06-10T08:03:38.799Z,67.30
2017-06-10T08:06:05.496Z,66.10
2017-06-10T08:08:31.809Z,62.50
2017-06-10T08:10:58.058Z,65.60
2017-06-10T08:13:24.325Z,63.20
2017-06-10T08:15:50.585Z,59.80
2017-06-10T08:18:16.881Z,61.20
2017-06-10T08:20:43.144Z,63.30
2017-06-10T08:23:10.006Z,62.40
2017-06-10T08:25:36.261Z,62.70
2017-06-10T08:28:02.886Z,62.10
2017-06-10T08:30:29.149Z,62.10
2017-06-10T08:32:55.557Z,60.20
2017-06-10T08:35:22.211Z,55.70
2017-06-10T08:37:48.472Z,55.70
2017-06-10T08:40:15.075Z,55.60
2017-06-10T08:42:41.367Z,54.40
2017-06-10T08:45:07.621Z,54.80
2017-06-10T08:47:33.914Z,53.90
2017-06-10T08:50:00.170Z,53.10
2017-06-10T08:52:26.448Z,50.90
2017-06-10T08:54:52.688Z,53.40
2017-06-10T08:57:19.193Z,53.20
2017-06-10T08:59:45.459Z,51.80
2017-06-10T09:02:11.748Z,51.70
2017-06-10T09:04:38.038Z,54.50
2017-06-10T09:07:04.329Z,56.60
2017-06-10T09:09:30.654Z,53.40
2017-06-10T09:11:56.921Z,53.70
2017-06-10T09:14:23.192Z,53.50
2017-06-10T09:16:49.464Z,52.00
2017-06-10T09:19:15.937Z,49.90
2017-06-10T09:21:42.777Z,48.10
2017-06-10T09:24:09.392Z,48.60
2017-06-10T09:26:35.685Z,48.60
2017-06-10T09:29:01.941Z,49.30
2017-06-10T09:31:28.484Z,49.40
2017-06-10T09:33:54.742Z,50.40
2017-06-10T09:36:21.384Z,51.40
2017-06-10T09:38:48.062Z,50.20
2017-06-10T09:41:14.321Z,50.30
2017-06-10T09:43:40.596Z,48.10
2017-06-10T09:46:06.865Z,49.20
2017-06-10T09:48:33.129Z,47.70
2017-06-10T09:50:59.780Z,48.50
2017-06-10T09:53:26.409Z,46.30
2017-06-10T09:55:52.729Z,46.30
2017-06-10T09:58:18.997Z,49.90
2017-06-10T10:00:45.594Z,47.70
2017-06-10T10:03:11.865Z,46.30
2017-06-10T10:05:38.170Z,49.30
2017-06-10T10:08:04.457Z,47.20
2017-06-10T10:10:30.708Z,48.80
2017-06-10T10:12:57.328Z,46.90
2017-06-10T10:15:33.045Z,44.80
2017-06-10T10:18:09.465Z,47.20
2017-06-10T10:20:36.695Z,44.80
2017-06-10T10:23:03.051Z,45.80
2017-06-10T10:25:29.728Z,45.90
2017-06-10T10:27:56.005Z,45.90
2017-06-10T10:30:22.276Z,47.80
2017-06-10T10:32:48.537Z,43.80
2017-06-10T10:35:14.797Z,43.70
2017-06-10T10:37:41.058Z,40.90
2017-06-10T10:40:07.297Z,38.70
2017-06-10T10:42:33.558Z,40.90
2017-06-10T10:44:59.815Z,41.10
2017-06-10T10:47:26.095Z,38.70
2017-06-10T10:49:52.410Z,39.30
2017-06-10T10:52:18.671Z,42.00
2017-06-10T10:54:45.038Z,41.20
2017-06-10T10:57:11.289Z,42.10
2017-06-10T10:59:37.569Z,43.40
2017-06-10T11:02:03.836Z,41.60
2017-06-10T11:04:30.100Z,41.50
2017-06-10T11:06:56.380Z,44.20
2017-06-10T11:09:22.818Z,41.40
2017-06-10T11:11:49.473Z,40.80
2017-06-10T11:14:15.728Z,40.80
2017-06-10T11:16:41.997Z,38.60
2017-06-10T11:19:08.268Z,41.70
2017-06-10T11:21:34.548Z,40.60
2017-06-10T11:24:00.824Z,39.80
2017-06-10T11:26:27.056Z,37.30
2017-06-10T11:28:53.465Z,39.30
2017-06-10T11:31:20.105Z,39.10
2017-06-10T11:33:46.839Z,41.40
2017-06-10T11:36:13.168Z,41.40
2017-06-10T11:38:39.483Z,38.50
2017-06-10T11:41:05.788Z,39.90
2017-06-10T11:43:32.072Z,36.30
2017-06-10T11:45:58.729Z,37.40
2017-06-10T11:48:24.985Z,37.40
2017-06-10T11:50:51.650Z,36.30
2017-06-10T11:53:17.900Z,36.40
2017-06-10T11:55:44.212Z,39.20
2017-06-10T11:58:10.489Z,33.50
2017-06-10T12:00:36.752Z,35.70
2017-06-10T12:03:03.048Z,37.40
2017-06-10T12:05:29.323Z,34.30
2017-06-10T12:07:57.369Z,33.10
2017-06-10T12:10:23.690Z,34.50
2017-06-10T12:12:49.988Z,36.40
2017-06-10T12:15:16.288Z,34.80
2017-06-10T12:17:42.589Z,33.70
2017-06-10T12:20:08.965Z,34.00
2017-06-10T12:22:35.626Z,31.50
2017-06-10T12:25:02.337Z,31.50
2017-06-10T12:27:28.605Z,33.00
2017-06-10T12:29:54.882Z,32.60
2017-06-10T12:32:21.166Z,34.20
2017-06-10T12:34:47.417Z,32.10
2017-06-10T12:37:13.703Z,30.60
2017-06-10T12:39:40.009Z,29.50
2017-06-10T12:42:06.669Z,30.60
2017-06-10T12:44:32.967Z,30.60
2017-06-10T12:46:59.261Z,29.80
2017-06-10T12:49:25.543Z,29.20
2017-06-10T12:51:52.209Z,27.50
2017-06-10T12:54:18.529Z,27.40
2017-06-10T12:56:44.769Z,26.90
2017-06-10T12:59:11.033Z,25.50
2017-06-10T13:01:37.333Z,24.50
2017-06-10T13:04:03.596Z,24.10
2017-06-10T13:06:29.885Z,24.90
2017-06-10T13:08:56.198Z,23.50
2017-06-10T13:11:22.864Z,23.30
2017-06-10T13:13:49.142Z,23.30
2017-06-10T13:16:15.400Z,22.40
2017-06-10T13:18:41.677Z,22.50
2017-06-10T13:21:07.949Z,22.70
2017-06-10T13:23:34.608Z,21.30
2017-06-10T13:26:00.892Z,21.30
2017-06-10T13:28:27.153Z,20.40
2017-06-10T13:30:53.427Z,21.80
2017-06-10T13:33:24.829Z,20.70
2017-06-10T13:35:51.821Z,19.20
2017-06-10T13:38:19.833Z,20.50
2017-06-10T13:40:48.952Z,20.50
2017-06-10T13:43:15.195Z,21.30
2017-06-10T13:45:41.464Z,19.80
2017-06-10T13:48:07.772Z,19.90
2017-06-10T13:50:34.042Z,19.60
2017-06-10T13:53:00.361Z,20.00
2017-06-10T13:55:27.004Z,19.80
2017-06-10T13:57:53.265Z,19.80
2017-06-10T14:00:21.080Z,19.40
2017-06-10T14:02:47.335Z,18.60
2017-06-10T14:05:14.488Z,20.10
2017-06-10T14:07:40.762Z,22.20
2017-06-10T14:10:07.616Z,21.50
2017-06-10T14:12:33.871Z,23.60
2017-06-10T14:15:00.632Z,24.00
2017-06-10T14:17:26.921Z,24.40
2017-06-10T14:19:53.188Z,26.20
2017-06-10T14:22:19.468Z,24.80
2017-06-10T14:24:45.736Z,22.80
2017-06-10T14:27:12.352Z,23.30
2017-06-10T14:29:38.601Z,24.80
2017-06-10T14:32:04.862Z,24.00
2017-06-10T14:34:31.151Z,22.70
2017-06-10T14:36:57.412Z,21.40
2017-06-10T14:39:23.704Z,22.00
2017-06-10T14:41:50.046Z,20.80
2017-06-10T14:44:16.707Z,20.10
2017-06-10T14:46:42.997Z,20.10
2017-06-10T14:49:09.260Z,19.20
2017-06-10T14:51:35.577Z,20.00
2017-06-10T14:54:02.193Z,20.80
2017-06-10T14:56:28.732Z,20.70
2017-06-10T14:58:54.979Z,19.80
2017-06-10T15:01:21.288Z,20.40
2017-06-10T15:03:47.581Z,18.50
2017-06-10T15:06:13.925Z,19.60
2017-06-10T15:08:40.220Z,18.80
2017-06-10T15:11:06.512Z,18.90
2017-06-10T15:13:32.817Z,18.30
2017-06-10T15:15:59.105Z,18.90
2017-06-10T15:18:25.513Z,19.50
2017-06-10T15:20:52.152Z,17.20
2017-06-10T15:23:18.395Z,17.20
2017-06-10T15:25:45.049Z,19.00
2017-06-10T15:28:11.449Z,19.00
2017-06-10T15:30:38.176Z,18.10
2017-06-10T15:33:04.450Z,17.50
2017-06-10T15:35:30.707Z,18.30
2017-06-10T15:37:57.596Z,18.40
2017-06-10T15:40:24.222Z,19.70
2017-06-10T15:42:50.493Z,19.70
2017-06-10T15:45:16.758Z,19.10
2017-06-10T15:47:43.408Z,19.80
2017-06-10T15:50:09.753Z,19.40
2017-06-10T15:52:36.391Z,18.70
2017-06-10T15:55:03.044Z,19.50
2017-06-10T15:57:29.324Z,19.50
2017-06-10T15:59:55.640Z,18.70
2017-06-10T16:02:21.953Z,19.40
2017-06-10T16:04:48.640Z,20.10
2017-06-10T16:07:14.894Z,19.70
2017-06-10T16:09:41.215Z,20.30
2017-06-10T16:12:07.524Z,19.80
2017-06-10T16:14:33.785Z,20.60
2017-06-10T16:17:00.053Z,20.70
2017-06-10T16:19:26.322Z,19.60
2017-06-10T16:21:52.765Z,20.30
2017-06-10T16:24:19.019Z,20.80
2017-06-10T16:26:45.290Z,21.10
2017-06-10T16:29:11.599Z,21.00
2017-06-10T16:31:37.881Z,21.20
2017-06-10T16:34:04.177Z,22.30
2017-06-10T16:36:31.436Z,24.10
2017-06-10T16:38:58.080Z,27.10
2017-06-10T16:41:24.333Z,25.40
2017-06-10T16:43:50.664Z,25.70
2017-06-10T16:46:17.294Z,25.00
2017-06-10T16:48:44.540Z,25.00
2017-06-10T16:51:10.818Z,22.70
2017-06-10T16:53:37.090Z,21.80
2017-06-10T16:56:03.737Z,21.80
2017-06-10T16:58:30.005Z,21.40
2017-06-10T17:00:56.284Z,21.40
2017-06-10T17:03:22.581Z,20.30
2017-06-10T17:05:48.853Z,21.30
2017-06-10T17:08:15.149Z,24.40
2017-06-10T17:10:41.423Z,26.60
2017-06-10T17:13:08.368Z,31.40
2017-06-10T17:15:34.617Z,31.40
2017-06-10T17:18:00.893Z,32.30
2017-06-10T17:20:27.363Z,32.00
2017-06-10T17:22:54.011Z,34.50
2017-06-10T17:25:20.705Z,36.00
2017-06-10T17:27:47.045Z,36.00
2017-06-10T17:30:13.286Z,37.30
2017-06-10T17:32:39.725Z,36.90
2017-06-10T17:35:06.037Z,37.10
2017-06-10T17:37:32.353Z,38.10
2017-06-10T17:39:58.601Z,39.70
2017-06-10T17:42:24.882Z,39.40
2017-06-10T17:44:51.175Z,40.20
2017-06-10T17:47:17.444Z,39.60
2017-06-10T17:49:44.024Z,40.50
2017-06-10T17:52:10.295Z,47.10
2017-06-10T17:54:36.595Z,48.60
2017-06-10T17:57:03.033Z,49.80
2017-06-10T17:59:29.644Z,44.90
2017-06-10T18:01:55.933Z,44.90
2017-06-10T18:04:22.328Z,45.60
2017-06-10T18:06:48.584Z,46.70
2017-06-10T18:09:14.885Z,43.40
2017-06-10T18:11:41.217Z,43.10
2017-06-10T18:14:08.176Z,35.80
2017-06-10T18:16:34.490Z,35.80
2017-06-10T18:19:01.021Z,34.40
2017-06-10T18:21:27.357Z,34.00
2017-06-10T18:23:53.994Z,37.70
2017-06-10T18:26:20.838Z,39.70
2017-06-10T18:28:47.168Z,39.70
2017-06-10T18:31:13.504Z,42.70
2017-06-10T18:33:40.208Z,44.90
2017-06-10T18:36:06.867Z,44.80
2017-06-10T18:38:33.215Z,46.50
2017-06-10T18:40:59.497Z,47.60
2017-06-10T18:43:25.841Z,49.10
2017-06-10T18:45:53.730Z,49.60
2017-06-10T18:48:20.058Z,50.10
2017-06-10T18:50:46.409Z,49.70
2017-06-10T18:53:13.237Z,50.50
2017-06-10T18:55:39.902Z,52.50
2017-06-10T18:58:06.210Z,52.50
2017-06-10T19:00:32.537Z,52.70
2017-06-10T19:02:58.885Z,52.50
2017-06-10T19:05:25.195Z,52.90
2017-06-10T19:07:52.248Z,55.60
2017-06-10T19:10:19.090Z,55.00
2017-06-10T19:12:45.768Z,56.50
2017-06-10T19:15:12.037Z,56.50
2017-06-10T19:17:38.318Z,58.90
2017-06-10T19:20:04.592Z,60.10
2017-06-10T19:22:30.930Z,59.40
2017-06-10T19:24:57.272Z,59.20
2017-06-10T19:27:23.929Z,61.30
2017-06-10T19:29:50.224Z,61.20
2017-06-10T19:32:16.537Z,61.20
2017-06-10T19:34:43.301Z,60.50
2017-06-10T19:37:09.614Z,61.20
2017-06-10T19:39:35.901Z,61.40
2017-06-10T19:42:02.205Z,61.10
2017-06-10T19:44:28.461Z,61.20
2017-06-10T19:46:54.790Z,61.20
2017-06-10T19:49:21.093Z,61.50
2017-06-10T19:51:48.425Z,63.60
2017-06-10T19:54:15.315Z,63.50
2017-06-10T19:56:41.581Z,63.30
2017-06-10T19:59:07.886Z,62.40
2017-06-10T20:01:34.379Z,62.30
2017-06-10T20:04:00.706Z,62.30
2017-06-10T20:06:26.996Z,62.50
2017-06-10T20:08:53.318Z,63.10
2017-06-10T20:11:19.689Z,63.70
2017-06-10T20:13:46.965Z,64.60
2017-06-10T20:16:13.654Z,64.10
2017-06-10T20:18:40.016Z,64.10
2017-06-10T20:21:06.486Z,63.70
2017-06-10T20:23:32.785Z,64.70
2017-06-10T20:25:59.424Z,64.60
2017-06-10T20:28:26.327Z,64.80
2017-06-10T20:30:52.610Z,65.20
2017-06-10T20:33:18.934Z,65.90
2017-06-10T20:35:45.255Z,66.00
2017-06-10T20:38:11.942Z,66.50
2017-06-10T20:40:38.242Z,66.50
2017-06-10T20:43:04.857Z,66.90
2017-06-10T20:45:31.125Z,66.70
2017-06-10T20:48:00.201Z,66.20
2017-06-10T20:50:27.505Z,66.00
2017-06-10T20:52:54.807Z,66.60
2017-06-10T20:55:21.142Z,66.00
2017-06-10T20:57:48.496Z,66.50
2017-06-10T21:00:14.845Z,67.10
2017-06-10T21:02:42.371Z,67.10
2017-06-10T21:05:08.649Z,66.60
2017-06-10T21:07:34.937Z,67.60
2017-06-10T21:10:01.206Z,68.70
2017-06-10T21:12:28.817Z,67.90
2017-06-10T21:14:56.687Z,68.50
2017-06-10T21:17:23.698Z,68.30
2017-06-10T21:19:49.992Z,69.40
2017-06-10T21:22:16.491Z,69.60
2017-06-10T21:24:42.802Z,69.00
2017-06-10T21:27:09.091Z,69.90
2017-06-10T21:29:35.385Z,70.80
2017-06-10T21:32:02.071Z,69.90
2017-06-10T21:34:28.451Z,69.90
2017-06-10T21:36:55.132Z,71.10
2017-06-10T21:39:21.401Z,71.10
2017-06-10T21:41:47.709Z,70.80
2017-06-10T21:44:14.182Z,71.00
2017-06-10T21:46:40.476Z,70.40
2017-06-10T21:49:06.745Z,70.90
2017-06-10T21:51:33.064Z,71.60
2017-06-10T21:53:59.722Z,71.70
2017-06-10T21:56:25.977Z,71.80
2017-06-10T21:58:52.286Z,71.90
2017-06-10T22:01:18.555Z,71.80
2017-06-10T22:03:45.029Z,72.30
2017-06-10T22:06:11.662Z,73.10
2017-06-10T22:08:37.966Z,73.10
2017-06-10T22:11:04.293Z,72.80
2017-06-10T22:13:30.577Z,72.50
2017-06-10T22:15:56.853Z,72.30
2017-06-10T22:18:23.122Z,73.10
2017-06-10T22:20:49.453Z,73.10
2017-06-10T22:23:15.720Z,73.20
2017-06-10T22:25:41.954Z,73.30
2017-06-10T22:28:08.233Z,73.30
2017-06-10T22:30:34.501Z,73.80
2017-06-10T22:33:00.788Z,73.80
2017-06-10T22:35:27.632Z,72.60
2017-06-10T22:37:54.257Z,73.10
2017-06-10T22:40:20.520Z,73.10
2017-06-10T22:42:46.769Z,73.50
2017-06-10T22:45:13.066Z,73.40
2017-06-10T22:47:39.319Z,73.00
2017-06-10T22:50:05.572Z,73.00
2017-06-10T22:52:31.862Z,73.80
2017-06-10T22:54:58.100Z,74.00
2017-06-10T22:57:24.369Z,74.20
2017-06-10T22:59:50.608Z,74.40
2017-06-10T23:02:16.881Z,73.20
2017-06-10T23:04:43.190Z,73.50
2017-06-10T23:07:09.814Z,74.10
2017-06-10T23:09:36.088Z,74.10
2017-06-10T23:12:02.373Z,74.20
2017-06-10T23:14:28.653Z,74.60
2017-06-10T23:16:54.928Z,74.30
2017-06-10T23:19:21.185Z,74.70
2017-06-10T23:21:47.829Z,74.80
2017-06-10T23:24:14.061Z,74.80
2017-06-10T23:26:40.353Z,75.50
2017-06-10T23:29:06.642Z,75.30
2017-06-10T23:31:33.127Z,74.70
2017-06-10T23:33:59.743Z,75.00
2017-06-10T23:36:26.013Z,75.00
2017-06-10T23:38:52.257Z,75.10
2017-06-10T23:41:18.513Z,75.10
2017-06-10T23:43:44.804Z,75.30
2017-06-10T23:46:11.061Z,75.40
2017-06-10T23:48:37.342Z,75.50
2017-06-10T23:51:03.772Z,75.70
2017-06-10T23:53:30.389Z,75.60
2017-06-10T23:55:56.840Z,75.60
2017-06-10T23:58:23.457Z,75.60
